TimeEDT,TemperatureF,Dew PointF,Humidity,Sea Level PressureIn,VisibilityMPH,Wind Direction,Wind SpeedMPH,Gust SpeedMPH,PrecipitationIn,Events,Conditions,WindDirDegrees,DateUTC
12:14 AM,39.2,30.2,70,30.16,10.0,SW,3.5,-,N/A,,Clear,230,2012-10-11 04:14:00
12:34 AM,39.2,30.2,70,30.17,10.0,WSW,3.5,-,N/A,,Clear,240,2012-10-11 04:34:00
12:54 AM,39.2,30.2,70,30.17,10.0,WSW,3.5,-,N/A,,Clear,240,2012-10-11 04:54:00
1:14 AM,39.2,28.4,65,30.16,10.0,Calm,Calm,-,N/A,,Clear,0,2012-10-11 05:14:00
1:34 AM,39.2,30.2,70,30.17,10.0,SW,5.8,-,N/A,,Clear,230,2012-10-11 05:34:00
1:54 AM,39.2,28.4,65,30.17,10.0,SW,8.1,-,N/A,,Clear,230,2012-10-11 05:54:00
2:14 AM,39.2,28.4,65,30.18,10.0,SW,6.9,-,N/A,,Clear,230,2012-10-11 06:14:00
2:34 AM,39.2,28.4,65,30.18,10.0,WSW,4.6,-,N/A,,Clear,240,2012-10-11 06:34:00
2:55 AM,39.2,28.4,65,30.17,10.0,Calm,Calm,-,N/A,,Clear,0,2012-10-11 06:55:00
3:14 AM,37.4,30.2,75,30.17,10.0,WSW,4.6,-,N/A,,Clear,250,2012-10-11 07:14:00
3:54 AM,37.4,30.2,75,30.18,10.0,WSW,5.8,-,N/A,,Clear,240,2012-10-11 07:54:00
4:14 AM,37.4,30.2,75,30.19,10.0,WSW,4.6,-,N/A,,Clear,250,2012-10-11 08:14:00
4:35 AM,37.4,30.2,75,30.19,10.0,WSW,4.6,-,N/A,,Clear,250,2012-10-11 08:35:00
4:54 AM,37.4,30.2,75,30.19,10.0,WSW,5.8,-,N/A,,Clear,250,2012-10-11 08:54:00
5:14 AM,37.4,30.2,75,30.19,10.0,WSW,4.6,-,N/A,,Clear,240,2012-10-11 09:14:00
5:35 AM,37.4,30.2,75,30.18,10.0,WSW,4.6,-,N/A,,Clear,240,2012-10-11 09:35:00
5:54 AM,37.4,30.2,75,30.19,10.0,WSW,5.8,-,N/A,,Clear,250,2012-10-11 09:54:00
6:14 AM,37.4,30.2,75,30.18,10.0,WSW,5.8,-,N/A,,Clear,250,2012-10-11 10:14:00
6:35 AM,37.4,30.2,75,30.18,10.0,SW,9.2,-,N/A,,Clear,230,2012-10-11 10:35:00
6:54 AM,37.4,30.2,75,30.19,10.0,SW,8.1,-,N/A,,Clear,220,2012-10-11 10:54:00
7:14 AM,37.4,30.2,75,30.18,10.0,SSW,6.9,-,N/A,,Clear,210,2012-10-11 11:14:00
7:34 AM,37.4,30.2,75,30.19,10.0,SW,5.8,-,N/A,,Clear,220,2012-10-11 11:34:00
7:54 AM,37.4,30.2,75,30.19,10.0,SW,6.9,-,N/A,,Clear,230,2012-10-11 11:54:00
8:15 AM,37.4,30.2,75,30.20,10.0,SW,5.8,-,N/A,,Clear,230,2012-10-11 12:15:00
8:34 AM,37.4,30.2,75,30.20,10.0,SW,6.9,-,N/A,,Clear,230,2012-10-11 12:34:00
8:54 AM,39.2,30.2,70,30.19,10.0,SW,6.9,-,N/A,,Clear,220,2012-10-11 12:54:00
9:14 AM,41.0,30.2,65,30.20,10.0,SW,6.9,-,N/A,,Clear,220,2012-10-11 13:14:00
9:34 AM,42.8,30.2,61,30.19,10.0,SSW,9.2,16.1,N/A,,Clear,210,2012-10-11 13:34:00
9:54 AM,44.6,32.0,61,30.19,10.0,SW,8.1,-,N/A,,Clear,220,2012-10-11 13:54:00
10:14 AM,46.4,33.8,62,30.19,10.0,SW,11.5,18.4,N/A,,Clear,220,2012-10-11 14:14:00
10:34 AM,48.2,32.0,54,30.18,10.0,SSW,8.1,-,N/A,,Clear,210,2012-10-11 14:34:00
10:54 AM,50.0,30.2,47,30.17,10.0,SW,13.8,20.7,N/A,,Clear,220,2012-10-11 14:54:00
11:14 AM,51.8,30.2,44,30.17,10.0,SSW,12.7,-,N/A,,Clear,210,2012-10-11 15:14:00
11:35 AM,53.6,30.2,41,30.16,10.0,SW,17.3,23.0,N/A,,Clear,220,2012-10-11 15:35:00
11:54 AM,53.6,30.2,41,30.15,10.0,SW,17.3,25.3,N/A,,Clear,220,2012-10-11 15:54:00
12:14 PM,55.4,30.2,38,30.15,10.0,SSW,18.4,25.3,N/A,,Clear,210,2012-10-11 16:14:00
12:35 PM,55.4,30.2,38,30.13,10.0,SSW,18.4,24.2,N/A,,Clear,210,2012-10-11 16:35:00
12:54 PM,55.4,30.2,38,30.12,10.0,SW,17.3,25.3,N/A,,Clear,220,2012-10-11 16:54:00
1:14 PM,57.2,28.4,33,30.11,10.0,SW,18.4,28.8,N/A,,Clear,230,2012-10-11 17:14:00
1:54 PM,57.2,28.4,33,30.08,10.0,SW,21.9,27.6,N/A,,Clear,220,2012-10-11 17:54:00
2:14 PM,59.0,28.4,31,30.07,10.0,SW,16.1,25.3,N/A,,Clear,220,2012-10-11 18:14:00
2:34 PM,59.0,28.4,31,30.05,10.0,SSW,21.9,27.6,N/A,,Clear,210,2012-10-11 18:34:00
2:54 PM,60.8,28.4,29,30.06,10.0,SW,18.4,32.2,N/A,,Clear,220,2012-10-11 18:54:00
3:14 PM,60.8,26.6,27,30.05,10.0,SW,19.6,27.6,N/A,,Clear,230,2012-10-11 19:14:00
3:34 PM,60.8,26.6,27,30.05,10.0,SW,18.4,25.3,N/A,,Clear,230,2012-10-11 19:34:00
3:54 PM,60.8,26.6,27,30.04,10.0,SW,13.8,23.0,N/A,,Clear,220,2012-10-11 19:54:00
4:15 PM,60.8,26.6,27,30.04,10.0,SW,15.0,28.8,N/A,,Clear,220,2012-10-11 20:15:00
4:54 PM,60.8,24.8,25,30.03,10.0,SW,17.3,25.3,N/A,,Clear,230,2012-10-11 20:54:00
5:15 PM,60.8,24.8,25,30.03,10.0,SW,15.0,27.6,N/A,,Clear,220,2012-10-11 21:15:00
5:34 PM,60.8,26.6,27,30.03,10.0,SW,10.4,20.7,N/A,,Clear,230,2012-10-11 21:34:00
6:34 PM,59.0,26.6,29,30.04,10.0,SW,11.5,17.3,N/A,,Clear,230,2012-10-11 22:34:00
6:54 PM,57.2,28.4,33,30.04,10.0,SW,6.9,-,N/A,,Clear,230,2012-10-11 22:54:00
7:34 PM,55.4,30.2,38,30.06,10.0,SSW,5.8,-,N/A,,Clear,210,2012-10-11 23:34:00
7:54 PM,55.4,30.2,38,30.06,10.0,SW,6.9,-,N/A,,Clear,220,2012-10-11 23:54:00
8:14 PM,55.4,30.2,38,30.06,10.0,SW,8.1,-,N/A,,Clear,220,2012-10-12 00:14:00
8:34 PM,55.4,30.2,38,30.06,10.0,SSW,6.9,-,N/A,,Clear,210,2012-10-12 00:34:00
8:54 PM,55.4,32.0,41,30.06,10.0,SSW,5.8,-,N/A,,Clear,210,2012-10-12 00:54:00
9:14 PM,53.6,32.0,44,30.07,10.0,SSW,6.9,-,N/A,,Clear,210,2012-10-12 01:14:00
9:34 PM,55.4,32.0,41,30.07,10.0,SW,6.9,-,N/A,,Mostly Cloudy,220,2012-10-12 01:34:00
9:54 PM,53.6,32.0,44,30.07,10.0,SSW,6.9,-,N/A,,Scattered Clouds,210,2012-10-12 01:54:00
10:14 PM,53.6,33.8,47,30.07,10.0,SSW,5.8,-,N/A,,Mostly Cloudy,210,2012-10-12 02:14:00
10:35 PM,53.6,33.8,47,30.09,10.0,NNW,8.1,-,N/A,,Scattered Clouds,330,2012-10-12 02:35:00
10:54 PM,55.4,35.6,47,30.10,10.0,North,11.5,17.3,N/A,,Scattered Clouds,350,2012-10-12 02:54:00
11:14 PM,53.6,39.2,58,30.11,10.0,North,9.2,-,N/A,,Scattered Clouds,350,2012-10-12 03:14:00
11:34 PM,51.8,39.2,62,30.12,10.0,NNW,10.4,18.4,N/A,,Scattered Clouds,340,2012-10-12 03:34:00
11:54 PM,51.8,39.2,62,30.14,10.0,NNW,12.7,-,N/A,,Mostly Cloudy,330,2012-10-12 03:54:00